Laingsburg, Michigan
Current Conditions -  °F | °C
As of 12:34 PM on Thursday 23 Oct 2014 (Local Time) from KRNP Reporting Station
Scattered Clouds Scattered Clouds  
Wind Chill: 47°   Ceiling: Unl
Heat Index: 49°   Visibility: 10mi
Dew Point: 40°   Wind: 5mph
Humidity: 72%   Direction: 240°WSW
Pressure: 30.24"   Gusts: NA
Location:  42.89°N, 84.35°W
Report Text: KRNP 231634Z AUTO 24004KT 10SM SCT017 10/05 A3024 RMK AO2 T00950046
Loading
Personal Weather Stations






























Interactive Weather Map
Tropical Storm Tracking
New forecast layout! Learn more

10-Day Weather Forecast

Advertisements
Track Severe Weather on mobile